Time;durP1;ratioP1;P1;durP2;ratioP2;P2;SDS_P1;SDS_P2;PMS_P1;PMS_P2;Temp;Humidity;BMP_temperature;BMP_pressure;BME280_temperature;BME280_humidity;BME280_pressure;Samples;Min_cycle;Max_cycle;Signal;HPM_P1;HPM_P2
2021/09/11 00:00:04;;;;;;;8.37;7.63;;;22.00;99.90;;;;;;5046897;28;20181;-59
2021/09/11 00:02:30;;;;;;;7.13;6.53;;;21.80;99.90;;;;;;5036679;28;20175;-59
2021/09/11 00:04:56;;;;;;;7.80;7.20;;;21.80;99.90;;;;;;5035797;28;20476;-51
2021/09/11 00:07:21;;;;;;;7.47;6.87;;;21.70;99.90;;;;;;5036274;28;20183;-51
2021/09/11 00:09:47;;;;;;;7.80;7.20;;;21.70;99.90;;;;;;5036007;28;20168;-50
2021/09/11 00:12:13;;;;;;;8.17;7.47;;;21.60;99.90;;;;;;5036300;28;20652;-49
2021/09/11 00:14:38;;;;;;;8.20;7.60;;;21.70;99.90;;;;;;5036013;28;20174;-50
2021/09/11 00:17:05;;;;;;;7.67;6.93;;;21.70;99.90;;;;;;5036002;28;20559;-59
2021/09/11 00:19:30;;;;;;;8.90;8.20;;;21.60;99.90;;;;;;5044876;28;20542;-59
2021/09/11 00:21:56;;;;;;;7.47;6.90;;;21.60;99.90;;;;;;5055714;28;20439;-59
2021/09/11 00:24:21;;;;;;;8.13;7.43;;;21.70;99.90;;;;;;5055800;28;20179;-58
2021/09/11 00:26:47;;;;;;;8.13;7.43;;;21.60;99.90;;;;;;5055469;28;20337;-58
2021/09/11 00:29:12;;;;;;;7.40;6.77;;;21.60;99.90;;;;;;5055610;28;20163;-58
2021/09/11 00:31:38;;;;;;;7.40;6.80;;;21.60;99.90;;;;;;5055505;28;20658;-58
2021/09/11 00:34:03;;;;;;;7.77;7.17;;;21.60;99.90;;;;;;5055214;28;20171;-59
2021/09/11 00:36:30;;;;;;;8.80;8.10;;;21.60;99.90;;;;;;5055609;28;20584;-58
2021/09/11 00:38:56;;;;;;;8.70;8.00;;;21.60;99.90;;;;;;5055629;28;20213;-59
2021/09/11 00:41:21;;;;;;;7.33;6.70;;;21.60;99.90;;;;;;5055178;28;20817;-59
2021/09/11 00:43:49;;;;;;;8.67;7.90;;;21.60;99.90;;;;;;5055566;28;20409;-59
2021/09/11 00:46:17;;;;;;;7.50;6.90;;;21.70;99.90;;;;;;5055368;28;20199;-58
2021/09/11 00:48:43;;;;;;;8.63;7.83;;;21.60;99.90;;;;;;5055873;28;20410;-59
2021/09/11 00:51:11;;;;;;;8.03;7.37;;;21.30;99.90;;;;;;5054674;28;20413;-57
2021/09/11 00:53:38;;;;;;;8.10;7.40;;;21.50;99.90;;;;;;5055364;28;20403;-56
2021/09/11 00:56:05;;;;;;;7.80;7.20;;;21.60;99.90;;;;;;5054428;28;20421;-56
2021/09/11 00:58:30;;;;;;;8.00;7.40;;;21.60;99.90;;;;;;5054981;28;20401;-55
2021/09/11 01:00:56;;;;;;;7.77;7.13;;;21.60;99.90;;;;;;5054581;28;20466;-54
2021/09/11 01:03:22;;;;;;;8.67;7.90;;;21.60;99.90;;;;;;5054501;28;20170;-57
2021/09/11 01:05:47;;;;;;;8.20;7.50;;;21.70;99.90;;;;;;5054061;28;20207;-51
2021/09/11 01:08:13;;;;;;;8.60;7.80;;;21.70;99.90;;;;;;5054571;28;20245;-50
2021/09/11 01:10:40;;;;;;;7.97;7.33;;;21.70;99.90;;;;;;5054478;28;20201;-49
2021/09/11 01:13:08;;;;;;;7.60;6.90;;;21.80;99.90;;;;;;5053834;28;20159;-50
2021/09/11 01:15:37;;;;;;;7.93;7.23;;;21.80;99.90;;;;;;5054291;28;20973;-58
2021/09/11 01:18:04;;;;;;;8.30;7.70;;;21.70;99.90;;;;;;5054899;28;20409;-59
2021/09/11 01:20:31;;;;;;;8.17;7.57;;;21.70;99.90;;;;;;5054221;28;20409;-57
2021/09/11 01:22:57;;;;;;;7.43;6.80;;;21.70;99.90;;;;;;5054476;28;20420;-59
2021/09/11 01:25:23;;;;;;;7.03;6.53;;;21.70;99.90;;;;;;5054368;28;20417;-58
2021/09/11 01:27:50;;;;;;;7.63;7.03;;;21.70;99.90;;;;;;5054545;28;20175;-59
2021/09/11 01:30:18;;;;;;;8.07;7.40;;;21.70;99.90;;;;;;5054309;28;20412;-58
2021/09/11 01:32:44;;;;;;;7.93;7.30;;;21.70;99.90;;;;;;5054439;28;20437;-58
2021/09/11 01:35:11;;;;;;;7.27;6.67;;;21.70;99.90;;;;;;5053978;28;20428;-59
2021/09/11 01:37:36;;;;;;;7.60;7.00;;;21.70;99.90;;;;;;5054540;28;20764;-57
2021/09/11 01:40:03;;;;;;;8.20;7.50;;;21.60;99.90;;;;;;5054265;28;20425;-53
2021/09/11 01:42:29;;;;;;;7.50;6.80;;;21.60;99.90;;;;;;5053750;28;20182;-58
2021/09/11 01:44:57;;;;;;;8.00;7.30;;;21.50;99.90;;;;;;5053759;28;20401;-54
2021/09/11 01:47:23;;;;;;;6.70;6.10;;;21.50;99.90;;;;;;5053702;28;20603;-50
2021/09/11 01:49:49;;;;;;;7.73;7.13;;;21.50;99.90;;;;;;5050586;28;20782;-49
2021/09/11 01:52:14;;;;;;;7.67;7.00;;;21.50;99.90;;;;;;5034028;28;20406;-50
2021/09/11 01:54:41;;;;;;;8.27;7.40;;;21.50;99.90;;;;;;5033665;28;20163;-50
2021/09/11 01:57:08;;;;;;;7.77;7.10;;;21.50;99.90;;;;;;5033322;28;20263;-59
2021/09/11 01:59:34;;;;;;;7.00;6.50;;;21.60;99.90;;;;;;5033854;28;20421;-58
2021/09/11 02:02:00;;;;;;;7.20;6.30;;;21.50;99.90;;;;;;5033670;28;20418;-57
2021/09/11 02:04:26;;;;;;;7.93;7.23;;;21.40;99.90;;;;;;5033334;28;20875;-58
2021/09/11 02:06:52;;;;;;;7.67;7.00;;;21.50;99.90;;;;;;5033238;28;20548;-58
2021/09/11 02:09:18;;;;;;;7.30;6.70;;;21.30;99.90;;;;;;5033543;28;20195;-57
2021/09/11 02:11:43;;;;;;;8.43;7.63;;;21.40;99.90;;;;;;5033310;28;20174;-55
2021/09/11 02:14:09;;;;;;;7.20;6.60;;;21.30;99.90;;;;;;5033696;28;20179;-56
2021/09/11 02:16:34;;;;;;;7.97;7.17;;;21.30;99.90;;;;;;5033368;28;20274;-51
2021/09/11 02:19:00;;;;;;;8.43;7.63;;;21.40;99.90;;;;;;5038582;28;20270;-56
2021/09/11 02:21:26;;;;;;;8.47;6.93;;;21.30;99.90;;;;;;5053023;28;20170;-57
2021/09/11 02:23:51;;;;;;;7.80;7.10;;;21.40;99.90;;;;;;5053060;28;20171;-57
2021/09/11 02:26:17;;;;;;;7.23;6.73;;;21.40;99.90;;;;;;5052874;28;20203;-50
2021/09/11 02:28:43;;;;;;;7.50;6.80;;;21.40;99.90;;;;;;5053298;28;20553;-56
2021/09/11 02:31:09;;;;;;;7.90;7.03;;;21.40;99.90;;;;;;5053626;28;20537;-54
2021/09/11 02:33:36;;;;;;;7.77;7.17;;;21.20;99.90;;;;;;5053570;28;20184;-55
2021/09/11 02:36:02;;;;;;;6.33;5.70;;;21.10;99.90;;;;;;5053146;28;20447;-58
2021/09/11 02:38:27;;;;;;;7.60;7.00;;;21.20;99.90;;;;;;5054204;28;20401;-56
2021/09/11 02:40:53;;;;;;;7.10;6.50;;;21.30;99.90;;;;;;5053037;28;20258;-58
2021/09/11 02:43:19;;;;;;;6.83;6.30;;;21.30;99.90;;;;;;5053356;28;20205;-58
2021/09/11 02:45:44;;;;;;;7.33;6.10;;;21.40;99.90;;;;;;5053094;28;20206;-56
2021/09/11 02:48:10;;;;;;;7.40;6.80;;;21.20;99.90;;;;;;5053516;28;20171;-58
2021/09/11 02:50:35;;;;;;;7.10;6.50;;;21.30;99.90;;;;;;5052012;28;20673;-58
2021/09/11 02:53:01;;;;;;;7.00;6.40;;;21.20;99.90;;;;;;5041979;28;20190;-57
2021/09/11 02:55:26;;;;;;;7.43;6.73;;;21.30;99.90;;;;;;5052845;28;20197;-57
2021/09/11 02:57:52;;;;;;;7.10;6.50;;;21.40;99.90;;;;;;5053336;28;20163;-58
2021/09/11 03:00:17;;;;;;;6.43;5.90;;;21.40;99.90;;;;;;5053286;28;20197;-58
2021/09/11 03:02:43;;;;;;;6.40;5.80;;;21.40;99.90;;;;;;5053272;28;20167;-58
2021/09/11 03:05:09;;;;;;;6.40;5.90;;;21.40;99.90;;;;;;5052885;28;20217;-57
2021/09/11 03:07:35;;;;;;;7.00;6.40;;;21.50;99.90;;;;;;5053228;28;20193;-56
2021/09/11 03:10:00;;;;;;;6.83;6.23;;;21.50;99.90;;;;;;5063609;22;20238;-60
2021/09/11 03:12:26;;;;;;;7.43;6.83;;;21.50;99.90;;;;;;5018516;28;20246;-60
2021/09/11 03:14:51;;;;;;;7.30;6.67;;;21.40;99.90;;;;;;5013098;28;20262;-60
2021/09/11 03:17:17;;;;;;;7.67;6.97;;;21.40;99.90;;;;;;5013229;28;20713;-61
2021/09/11 03:19:42;;;;;;;7.23;6.53;;;21.30;99.90;;;;;;5012932;28;20197;-60
2021/09/11 03:22:08;;;;;;;6.80;6.30;;;21.30;99.90;;;;;;5012044;28;20172;-60
2021/09/11 03:24:34;;;;;;;7.20;6.60;;;21.10;99.90;;;;;;5013001;28;20175;-60
2021/09/11 03:26:59;;;;;;;6.67;6.07;;;21.20;99.90;;;;;;5012910;28;20629;-62
2021/09/11 03:29:25;;;;;;;6.43;5.93;;;21.20;99.90;;;;;;5013329;28;20188;-60
2021/09/11 03:31:50;;;;;;;6.77;6.23;;;21.30;99.90;;;;;;5013003;28;20168;-59
2021/09/11 03:34:16;;;;;;;6.23;5.63;;;21.30;99.90;;;;;;5013274;28;20160;-61
2021/09/11 03:36:41;;;;;;;7.47;6.87;;;21.40;99.90;;;;;;5015037;28;20193;-61
2021/09/11 03:39:07;;;;;;;7.90;7.20;;;21.30;99.90;;;;;;5016663;28;20187;-61
2021/09/11 03:41:32;;;;;;;7.50;6.80;;;21.10;99.90;;;;;;5016285;28;20242;-61
2021/09/11 03:43:58;;;;;;;6.50;6.00;;;21.20;99.90;;;;;;5016470;28;20172;-61
2021/09/11 03:46:24;;;;;;;6.70;6.20;;;21.30;99.90;;;;;;5016077;28;20725;-61
2021/09/11 03:48:49;;;;;;;6.47;5.97;;;21.10;99.90;;;;;;5016307;28;20275;-61
2021/09/11 03:51:15;;;;;;;6.90;6.40;;;21.10;99.90;;;;;;5016305;28;20637;-61
2021/09/11 03:53:40;;;;;;;7.03;6.43;;;21.20;99.90;;;;;;5015954;28;20306;-61
2021/09/11 03:56:06;;;;;;;6.10;5.67;;;21.20;99.90;;;;;;5016045;28;20168;-61
2021/09/11 03:58:33;;;;;;;7.23;6.57;;;21.30;99.90;;;;;;5016092;28;20175;-61
2021/09/11 04:01:01;;;;;;;7.90;7.20;;;21.20;99.90;;;;;;5016181;28;20514;-61
2021/09/11 04:03:27;;;;;;;6.40;5.90;;;21.30;99.90;;;;;;5016291;28;20441;-60
2021/09/11 04:05:52;;;;;;;6.63;6.03;;;21.30;99.90;;;;;;5015894;28;20475;-60
2021/09/11 04:08:18;;;;;;;7.20;6.50;;;21.30;99.90;;;;;;5015695;28;20411;-60
2021/09/11 04:10:44;;;;;;;6.80;6.30;;;21.30;99.90;;;;;;5015554;28;20282;-61
2021/09/11 04:13:09;;;;;;;7.33;6.73;;;21.30;99.90;;;;;;5015946;28;20652;-60
2021/09/11 04:15:35;;;;;;;6.50;5.90;;;21.30;99.90;;;;;;5015897;28;20265;-61
2021/09/11 04:18:00;;;;;;;6.23;5.63;;;21.20;99.90;;;;;;5016964;28;20169;-61
2021/09/11 04:20:26;;;;;;;6.17;5.77;;;21.10;99.90;;;;;;5015684;28;20558;-61
2021/09/11 04:22:51;;;;;;;5.83;5.33;;;21.00;99.90;;;;;;5015643;28;20183;-62
2021/09/11 04:25:17;;;;;;;6.10;5.60;;;21.20;99.90;;;;;;5015821;28;20199;-61
2021/09/11 04:27:43;;;;;;;6.10;5.60;;;21.30;99.90;;;;;;5015692;28;20199;-61
2021/09/11 04:30:09;;;;;;;6.40;5.90;;;21.20;99.90;;;;;;5015906;28;20238;-61
2021/09/11 04:32:35;;;;;;;6.40;5.90;;;21.20;99.90;;;;;;5015509;28;20172;-61
2021/09/11 04:35:01;;;;;;;6.43;5.83;;;21.20;99.90;;;;;;5015586;28;20406;-61
2021/09/11 04:37:27;;;;;;;6.37;5.87;;;21.20;99.90;;;;;;5015725;28;20262;-60
2021/09/11 04:39:54;;;;;;;6.10;5.60;;;21.20;99.90;;;;;;5015497;28;20454;-60
2021/09/11 04:42:20;;;;;;;6.47;5.97;;;21.20;99.90;;;;;;5015489;28;20183;-61
2021/09/11 04:44:45;;;;;;;7.30;6.60;;;21.10;99.90;;;;;;5015358;28;20912;-60
2021/09/11 04:47:11;;;;;;;6.30;5.80;;;21.10;99.90;;;;;;5015695;28;20192;-61
2021/09/11 04:49:36;;;;;;;6.67;6.17;;;21.10;99.90;;;;;;5015530;28;20672;-60
2021/09/11 04:52:02;;;;;;;5.07;4.67;;;21.10;99.90;;;;;;5015225;28;20168;-62
2021/09/11 04:54:28;;;;;;;5.50;5.00;;;21.00;99.90;;;;;;5015024;28;20164;-61
2021/09/11 04:56:53;;;;;;;6.43;5.93;;;21.00;99.90;;;;;;5015011;28;20176;-60
2021/09/11 04:59:19;;;;;;;5.50;5.10;;;21.10;99.90;;;;;;5015554;28;20191;-60
2021/09/11 05:01:44;;;;;;;6.30;5.80;;;21.10;99.90;;;;;;5015087;28;20641;-61
2021/09/11 05:04:10;;;;;;;5.53;5.13;;;21.10;99.90;;;;;;5015168;28;20167;-61
2021/09/11 05:06:35;;;;;;;6.10;5.63;;;21.10;99.90;;;;;;5014815;28;20199;-61
2021/09/11 05:09:01;;;;;;;5.60;5.10;;;21.10;99.90;;;;;;5014858;28;20199;-61
2021/09/11 05:11:27;;;;;;;6.10;5.50;;;21.00;99.90;;;;;;5014869;28;20305;-61
2021/09/11 05:13:52;;;;;;;6.13;5.63;;;21.00;99.90;;;;;;5014984;28;20164;-60
2021/09/11 05:16:18;;;;;;;5.60;5.20;;;21.00;99.90;;;;;;5014705;28;20171;-61
2021/09/11 05:18:44;;;;;;;5.50;5.10;;;20.90;99.90;;;;;;5014586;28;20167;-61
2021/09/11 05:21:09;;;;;;;6.17;5.67;;;20.90;99.90;;;;;;5014829;28;20172;-61
2021/09/11 05:23:35;;;;;;;6.10;5.60;;;20.90;99.90;;;;;;5014263;28;20176;-61
2021/09/11 05:26:02;;;;;;;4.83;4.43;;;20.80;99.90;;;;;;5014288;28;20184;-61
2021/09/11 05:28:28;;;;;;;6.03;5.50;;;20.90;99.90;;;;;;4996879;28;20168;-61
2021/09/11 05:30:54;;;;;;;4.80;4.40;;;20.90;99.90;;;;;;5014912;28;20936;-61
2021/09/11 05:33:20;;;;;;;5.33;4.93;;;20.70;99.90;;;;;;5014680;28;20172;-61
2021/09/11 05:35:45;;;;;;;5.30;4.80;;;20.70;99.90;;;;;;5014370;28;20399;-61
2021/09/11 05:38:11;;;;;;;5.53;4.87;;;20.80;99.90;;;;;;5014242;28;20178;-61
2021/09/11 05:40:37;;;;;;;5.80;4.87;;;20.80;99.90;;;;;;5014242;28;20196;-61
2021/09/11 05:43:03;;;;;;;5.00;4.60;;;20.90;99.90;;;;;;5014236;28;20225;-61
2021/09/11 05:45:28;;;;;;;5.30;4.90;;;20.90;99.90;;;;;;5014176;28;20172;-61
2021/09/11 05:47:54;;;;;;;6.90;5.07;;;20.90;99.90;;;;;;5014228;28;20176;-61
2021/09/11 05:50:20;;;;;;;5.33;4.83;;;20.90;99.90;;;;;;5014011;28;20610;-60
2021/09/11 05:52:45;;;;;;;4.90;4.50;;;20.90;99.90;;;;;;5012907;28;20183;-61
2021/09/11 05:55:11;;;;;;;4.43;4.03;;;21.00;99.90;;;;;;5014196;28;20172;-61
2021/09/11 05:57:37;;;;;;;5.53;5.10;;;21.00;99.90;;;;;;5014092;28;20168;-62
2021/09/11 06:00:04;;;;;;;5.13;4.63;;;21.00;99.90;;;;;;5013504;28;20462;-62
2021/09/11 06:02:30;;;;;;;5.30;4.80;;;20.90;99.90;;;;;;5013344;28;20175;-61
2021/09/11 06:04:56;;;;;;;5.07;4.60;;;20.90;99.90;;;;;;5022339;28;20406;-60
2021/09/11 06:07:21;;;;;;;5.53;5.03;;;21.00;99.90;;;;;;5013766;28;20219;-61
2021/09/11 06:09:47;;;;;;;5.63;5.23;;;20.90;99.90;;;;;;5013695;28;20200;-61
2021/09/11 06:12:13;;;;;;;6.50;6.00;;;20.80;99.90;;;;;;5013707;28;20611;-61
2021/09/11 06:14:40;;;;;;;5.23;4.80;;;20.80;99.90;;;;;;5013618;28;20168;-61
2021/09/11 06:17:07;;;;;;;4.73;4.33;;;20.80;99.90;;;;;;5013606;28;20246;-60
2021/09/11 06:19:33;;;;;;;4.33;4.00;;;20.90;99.90;;;;;;5013533;28;20430;-61
2021/09/11 06:21:59;;;;;;;4.53;4.13;;;20.90;99.90;;;;;;5013454;28;20415;-61
2021/09/11 06:24:24;;;;;;;4.80;4.30;;;20.90;99.90;;;;;;5014190;28;20878;-59
2021/09/11 06:26:50;;;;;;;3.90;3.60;;;20.90;99.90;;;;;;5013505;28;20196;-61
2021/09/11 06:29:16;;;;;;;6.50;4.50;;;20.80;99.90;;;;;;5013692;28;20608;-61
2021/09/11 06:31:41;;;;;;;5.60;4.60;;;20.90;99.90;;;;;;5013403;28;20175;-61
2021/09/11 06:34:07;;;;;;;4.80;4.30;;;20.90;99.90;;;;;;5013416;28;20596;-61
2021/09/11 06:36:32;;;;;;;4.17;3.80;;;21.00;99.90;;;;;;5013463;28;20176;-61
2021/09/11 06:38:58;;;;;;;5.33;4.90;;;21.00;99.90;;;;;;5013087;28;20184;-61
2021/09/11 06:41:24;;;;;;;4.93;4.60;;;21.00;99.90;;;;;;5013104;28;20629;-61
2021/09/11 06:43:49;;;;;;;5.00;4.50;;;21.00;99.90;;;;;;5013615;28;20249;-61
2021/09/11 06:46:15;;;;;;;4.60;4.30;;;21.10;99.90;;;;;;5013206;28;20219;-60
2021/09/11 06:48:40;;;;;;;4.73;4.43;;;21.10;99.90;;;;;;5013152;28;20534;-60
2021/09/11 06:51:06;;;;;;;4.87;4.47;;;21.10;99.90;;;;;;5013200;28;20222;-61
2021/09/11 06:53:31;;;;;;;4.17;3.87;;;21.40;99.90;;;;;;5012610;28;20500;-61
2021/09/11 06:55:57;;;;;;;5.13;4.67;;;21.60;99.90;;;;;;5013186;28;20226;-61
2021/09/11 06:58:23;;;;;;;4.67;4.30;;;21.60;99.90;;;;;;5013190;28;20183;-61
2021/09/11 07:00:48;;;;;;;5.20;4.80;;;21.70;99.90;;;;;;5013165;28;20686;-61
2021/09/11 07:03:15;;;;;;;4.40;4.10;;;21.80;99.90;;;;;;4995511;28;20183;-61
2021/09/11 07:05:42;;;;;;;4.70;3.87;;;21.80;99.90;;;;;;5013312;28;20172;-61
2021/09/11 07:08:07;;;;;;;4.30;4.00;;;21.90;99.90;;;;;;5013074;28;20766;-61
2021/09/11 07:10:33;;;;;;;5.37;4.40;;;22.10;99.90;;;;;;5014168;28;20434;-61
2021/09/11 07:12:58;;;;;;;4.00;3.70;;;22.10;99.90;;;;;;5016891;28;20209;-61
2021/09/11 07:15:24;;;;;;;3.40;3.10;;;21.90;99.90;;;;;;5017281;28;20169;-61
2021/09/11 07:17:51;;;;;;;3.63;3.33;;;21.90;99.90;;;;;;5016942;28;20252;-61
2021/09/11 07:20:17;;;;;;;3.30;3.00;;;21.90;99.90;;;;;;5016916;28;20187;-61
2021/09/11 07:22:42;;;;;;;4.30;4.00;;;22.20;99.90;;;;;;5016467;28;20418;-61
2021/09/11 07:25:08;;;;;;;3.83;3.53;;;22.20;99.90;;;;;;5017012;28;20174;-61
2021/09/11 07:27:34;;;;;;;3.87;3.60;;;22.20;99.90;;;;;;5016738;28;20200;-61
2021/09/11 07:29:59;;;;;;;4.67;4.13;;;22.40;99.90;;;;;;5016650;28;20425;-60
2021/09/11 07:32:26;;;;;;;3.47;3.17;;;22.60;99.90;;;;;;5016624;28;20210;-61
2021/09/11 07:34:52;;;;;;;4.40;4.00;;;22.70;99.90;;;;;;5016866;28;20252;-61
2021/09/11 07:37:17;;;;;;;3.70;3.40;;;22.70;99.90;;;;;;5016297;28;20529;-62
2021/09/11 07:39:43;;;;;;;3.00;2.70;;;22.60;99.90;;;;;;5016542;28;20423;-62
2021/09/11 07:42:08;;;;;;;3.67;3.10;;;22.70;99.90;;;;;;5016222;28;20250;-62
2021/09/11 07:44:34;;;;;;;3.53;3.23;;;22.90;99.90;;;;;;5016442;28;20168;-62
2021/09/11 07:47:00;;;;;;;2.73;2.53;;;22.50;99.90;;;;;;5016519;28;20229;-62
2021/09/11 07:49:26;;;;;;;4.33;3.37;;;22.60;99.90;;;;;;5016272;28;20419;-62
2021/09/11 07:51:51;;;;;;;3.00;2.47;;;22.90;99.90;;;;;;5016269;28;20259;-61
2021/09/11 07:54:17;;;;;;;3.30;3.00;;;23.00;99.90;;;;;;5016043;28;20172;-62
2021/09/11 07:56:42;;;;;;;4.23;3.00;;;22.90;99.90;;;;;;5016251;28;20176;-61
2021/09/11 07:59:08;;;;;;;3.13;2.93;;;23.10;99.90;;;;;;5016111;28;20188;-61
2021/09/11 08:01:33;;;;;;;4.17;3.87;;;23.00;99.90;;;;;;5016235;28;20168;-61
2021/09/11 08:03:59;;;;;;;3.43;3.13;;;22.80;99.90;;;;;;5016207;28;20518;-61
2021/09/11 08:06:25;;;;;;;3.07;2.80;;;22.70;99.90;;;;;;5016159;28;20198;-61
2021/09/11 08:08:50;;;;;;;3.23;2.93;;;22.70;99.90;;;;;;5015676;28;20657;-61
2021/09/11 08:11:16;;;;;;;2.93;2.73;;;22.80;99.90;;;;;;5016552;28;20161;-61
2021/09/11 08:13:43;;;;;;;3.50;3.00;;;22.90;99.90;;;;;;5015873;28;20592;-62
2021/09/11 08:16:10;;;;;;;3.53;2.83;;;22.90;99.90;;;;;;5016202;28;20504;-61
2021/09/11 08:18:36;;;;;;;2.80;2.60;;;23.30;99.90;;;;;;5015922;28;20414;-61
2021/09/11 08:21:01;;;;;;;3.20;2.90;;;23.60;99.90;;;;;;5015933;28;20411;-61
2021/09/11 08:23:27;;;;;;;3.07;2.87;;;23.40;99.90;;;;;;5015416;28;20176;-61
2021/09/11 08:25:52;;;;;;;3.37;3.17;;;23.60;99.90;;;;;;5016220;28;20180;-60
2021/09/11 08:28:18;;;;;;;3.70;3.40;;;23.20;99.90;;;;;;5015395;28;20176;-61
2021/09/11 08:30:44;;;;;;;3.60;3.33;;;23.30;99.90;;;;;;5015534;28;20184;-61
2021/09/11 08:33:15;;;;;;;3.47;3.17;;;23.20;99.90;;;;;;5016383;28;20526;-61
2021/09/11 08:35:42;;;;;;;2.83;2.63;;;23.40;99.90;;;;;;5015749;28;20585;-61
2021/09/11 08:38:08;;;;;;;2.83;2.63;;;23.20;99.90;;;;;;5015445;28;20477;-61
2021/09/11 08:40:34;;;;;;;3.30;3.10;;;23.40;99.90;;;;;;5015343;28;20430;-60
2021/09/11 08:43:02;;;;;;;3.57;3.27;;;23.50;99.90;;;;;;5015240;28;20426;-61
2021/09/11 08:45:28;;;;;;;3.37;3.07;;;23.60;99.90;;;;;;5016046;28;20171;-61
2021/09/11 08:47:53;;;;;;;3.20;2.90;;;23.70;99.90;;;;;;5015069;28;20463;-61
2021/09/11 08:50:20;;;;;;;3.10;2.90;;;23.50;99.90;;;;;;5015200;28;20791;-60
2021/09/11 08:52:49;;;;;;;3.10;2.80;;;23.20;99.90;;;;;;5015081;28;20183;-61
2021/09/11 08:55:16;;;;;;;3.40;3.10;;;23.50;99.90;;;;;;5014058;28;20415;-61
2021/09/11 08:58:04;;;;;;;3.73;3.03;;;23.70;99.90;;;;;;5017414;28;20436;-61
2021/09/11 09:00:38;;;;;;;3.27;2.80;;;24.10;99.90;;;;;;5034822;28;20561;-62
2021/09/11 09:03:22;;;;;;;4.67;3.70;;;24.20;99.90;;;;;;5035142;28;20409;-62
2021/09/11 09:05:48;;;;;;;4.07;3.70;;;24.30;99.90;;;;;;5034775;28;20382;-62
2021/09/11 09:08:14;;;;;;;3.40;3.10;;;24.30;99.90;;;;;;5034257;28;20405;-62
2021/09/11 09:10:39;;;;;;;4.27;3.70;;;24.40;99.90;;;;;;5037363;22;20215;-59
2021/09/11 09:13:05;;;;;;;3.03;2.50;;;24.60;99.90;;;;;;4999355;28;20180;-59
2021/09/11 09:15:31;;;;;;;2.60;2.40;;;24.40;99.90;;;;;;4977939;28;20227;-58
2021/09/11 09:17:57;;;;;;;3.30;2.73;;;24.70;99.90;;;;;;4995197;28;20160;-59
2021/09/11 09:20:25;;;;;;;4.00;2.83;;;25.00;99.90;;;;;;4995182;28;20423;-59
2021/09/11 09:23:12;;;;;;;3.50;3.20;;;25.10;99.90;;;;;;4993699;28;20774;-57
2021/09/11 09:25:39;;;;;;;3.63;3.30;;;24.80;99.90;;;;;;4995672;28;20420;-52
2021/09/11 09:28:13;;;;;;;2.67;2.47;;;25.10;99.90;;;;;;4994878;28;20412;-52
2021/09/11 09:30:42;;;;;;;3.30;3.00;;;25.10;99.90;;;;;;4995112;28;20502;-50
2021/09/11 09:33:22;;;;;;;2.50;2.30;;;24.90;99.90;;;;;;4994988;28;20920;-54
2021/09/11 09:35:49;;;;;;;3.60;2.77;;;25.00;99.90;;;;;;4995454;28;20857;-59
2021/09/11 09:38:15;;;;;;;3.60;3.07;;;25.10;99.90;;;;;;4994505;28;20403;-59
2021/09/11 09:40:49;;;;;;;3.50;3.20;;;25.20;99.90;;;;;;4994837;28;20424;-59
2021/09/11 09:43:31;;;;;;;3.93;3.27;;;25.50;99.90;;;;;;4994596;28;20172;-59
2021/09/11 09:46:18;;;;;;;3.70;3.40;;;25.70;99.90;;;;;;4994538;28;20399;-53
2021/09/11 09:48:45;;;;;;;3.83;3.03;;;25.50;99.90;;;;;;4995224;28;20392;-53
2021/09/11 09:51:16;;;;;;;3.70;3.10;;;25.50;99.90;;;;;;4994245;28;20817;-53
2021/09/11 09:53:44;;;;;;;7.40;4.50;;;25.30;99.90;;;;;;4994508;28;20474;-53
2021/09/11 09:56:10;;;;;;;4.80;4.03;;;24.80;99.90;;;;;;4995038;28;20810;-50
2021/09/11 09:58:37;;;;;;;4.70;3.30;;;24.20;99.90;;;;;;4994482;28;20500;-49
2021/09/11 10:01:04;;;;;;;3.33;3.07;;;24.40;99.90;;;;;;4995251;28;20428;-52
2021/09/11 10:03:29;;;;;;;3.50;3.20;;;24.70;99.90;;;;;;4994528;28;20555;-51
2021/09/11 10:06:17;;;;;;;3.33;3.03;;;24.40;99.90;;;;;;4994633;28;20495;-50
2021/09/11 10:08:48;;;;;;;5.03;3.87;;;24.60;99.90;;;;;;4994512;28;20157;-52
2021/09/11 10:11:14;;;;;;;4.50;4.10;;;24.80;99.90;;;;;;4994145;28;20824;-50
2021/09/11 10:13:59;;;;;;;4.30;4.00;;;24.90;99.90;;;;;;4994545;28;20416;-52
2021/09/11 10:16:35;;;;;;;4.40;4.00;;;24.70;99.90;;;;;;4995104;28;20396;-50
2021/09/11 10:19:22;;;;;;;3.63;3.10;;;24.60;99.90;;;;;;4977459;28;20868;-50
2021/09/11 10:22:21;;;;;;;3.80;3.40;;;24.20;99.90;;;;;;4994381;28;20419;-49
2021/09/11 10:25:06;;;;;;;3.00;2.80;;;23.90;99.90;;;;;;4983099;28;20452;-50
2021/09/11 10:27:34;;;;;;;4.20;3.80;;;24.30;99.90;;;;;;4994950;28;20471;-52
2021/09/11 10:30:09;;;;;;;3.70;3.40;;;24.30;99.90;;;;;;4994783;28;20434;-51
2021/09/11 10:32:38;;;;;;;4.20;3.50;;;24.80;99.90;;;;;;4994492;28;20411;-53
2021/09/11 10:35:04;;;;;;;3.47;3.17;;;25.00;99.90;;;;;;4994147;28;20400;-59
2021/09/11 10:37:46;;;;;;;3.83;2.93;;;25.20;99.90;;;;;;4994408;28;20419;-58
2021/09/11 10:40:16;;;;;;;3.57;3.37;;;25.40;99.90;;;;;;4994048;28;20223;-57
2021/09/11 10:43:24;;;;;;;4.70;2.80;;;25.30;99.90;;;;;;4994177;28;20466;-58
2021/09/11 10:45:58;;;;;;;3.20;2.60;;;25.70;99.90;;;;;;4965103;28;20506;-51
2021/09/11 10:48:50;;;;;;;2.83;2.60;;;26.00;99.90;;;;;;4994045;28;20412;-58
2021/09/11 10:51:24;;;;;;;3.33;2.20;;;27.10;99.90;;;;;;4993790;28;20788;-57
2021/09/11 10:54:07;;;;;;;2.33;2.17;;;27.90;99.90;;;;;;4993479;28;20400;-59
2021/09/11 10:56:56;;;;;;;3.23;3.00;;;28.20;99.90;;;;;;4994167;28;20380;-53
2021/09/11 10:59:27;;;;;;;4.00;3.60;;;27.50;99.90;;;;;;4982918;28;20446;-51
2021/09/11 11:02:06;;;;;;;3.53;3.23;;;26.60;99.90;;;;;;4976420;28;20932;-49
2021/09/11 11:04:38;;;;;;;5.63;2.90;;;26.20;99.90;;;;;;4994073;28;20430;-52
2021/09/11 11:07:10;;;;;;;3.83;3.30;;;25.60;99.90;;;;;;4993817;28;20435;-49
2021/09/11 11:09:42;;;;;;;4.30;3.90;;;24.90;99.90;;;;;;4993518;28;20879;-52
2021/09/11 11:12:10;;;;;;;3.30;3.00;;;24.50;99.90;;;;;;4993447;28;20404;-50
2021/09/11 11:14:48;;;;;;;4.03;3.73;;;24.60;99.90;;;;;;4993601;28;20410;-58
2021/09/11 11:17:15;;;;;;;3.37;3.10;;;24.60;99.90;;;;;;4993470;28;20423;-59
2021/09/11 11:19:43;;;;;;;3.90;3.47;;;24.60;99.90;;;;;;4993754;28;20428;-56
2021/09/11 11:22:11;;;;;;;4.27;3.87;;;24.80;99.90;;;;;;4993650;28;20816;-58
2021/09/11 11:24:39;;;;;;;3.60;3.30;;;24.70;99.90;;;;;;4993130;28;20443;-59
2021/09/11 11:27:13;;;;;;;8.17;4.13;;;24.30;99.90;;;;;;4993194;28;20479;-59
2021/09/11 11:29:39;;;;;;;8.53;5.77;;;24.00;99.90;;;;;;4993584;28;20427;-58
2021/09/11 11:32:06;;;;;;;7.10;6.40;;;23.10;99.90;;;;;;4993655;28;20400;-58
2021/09/11 11:34:32;;;;;;;8.77;5.87;;;22.00;99.90;;;;;;4993496;28;20419;-58
2021/09/11 11:37:00;;;;;;;5.53;4.90;;;21.60;99.90;;;;;;4993361;28;20427;-58
2021/09/11 11:39:41;;;;;;;6.53;3.83;;;21.50;99.90;;;;;;4993012;28;20464;-55
2021/09/11 11:42:08;;;;;;;5.00;3.87;;;21.30;99.90;;;;;;4993118;28;20408;-60
2021/09/11 11:44:52;;;;;;;8.60;3.80;;;21.40;99.90;;;;;;4993509;28;20419;-58
2021/09/11 11:47:48;;;;;;;9.43;5.13;;;21.40;99.90;;;;;;4992713;28;20452;-50
2021/09/11 11:50:27;;;;;;;5.20;4.40;;;21.30;99.90;;;;;;4993402;28;20424;-51
2021/09/11 11:53:08;;;;;;;4.80;3.37;;;21.30;99.90;;;;;;4993426;28;20535;-54
2021/09/11 11:55:37;;;;;;;2.67;2.47;;;21.50;99.90;;;;;;4993623;28;20388;-58
2021/09/11 11:58:14;;;;;;;3.50;2.63;;;21.60;99.90;;;;;;4996258;28;20416;-59
2021/09/11 12:00:46;;;;;;;3.40;2.53;;;21.70;99.90;;;;;;4997177;28;20431;-58
2021/09/11 12:03:46;;;;;;;4.00;3.20;;;22.00;99.90;;;;;;4997895;28;20450;-57
2021/09/11 12:06:20;;;;;;;4.07;2.10;;;22.10;99.90;;;;;;4998585;28;20493;-57
2021/09/11 12:08:48;;;;;;;3.30;2.43;;;22.20;99.90;;;;;;4996633;28;20502;-59
2021/09/11 12:11:18;;;;;;;5.10;2.60;;;22.40;99.90;;;;;;4996058;28;20447;-55
2021/09/11 12:13:50;;;;;;;3.83;2.00;;;22.80;99.90;;;;;;4995950;28;20464;-58
2021/09/11 12:16:16;;;;;;;5.33;2.17;;;23.10;99.90;;;;;;4996315;28;20407;-57
2021/09/11 12:18:43;;;;;;;2.30;2.07;;;23.30;99.90;;;;;;4996570;28;20412;-59
2021/09/11 12:21:10;;;;;;;2.23;2.03;;;24.00;99.90;;;;;;4996158;28;20427;-59
2021/09/11 12:23:38;;;;;;;2.30;2.07;;;24.50;99.90;;;;;;4995992;28;20470;-59
2021/09/11 12:26:05;;;;;;;1.77;1.60;;;24.70;99.90;;;;;;4996220;28;20414;-58
2021/09/11 12:28:44;;;;;;;2.07;1.60;;;25.20;99.90;;;;;;4996080;28;20454;-58
2021/09/11 12:31:19;;;;;;;1.90;1.50;;;25.20;99.90;;;;;;4995939;28;20452;-59
2021/09/11 12:33:53;;;;;;;1.67;1.47;;;25.60;99.90;;;;;;4995924;28;20507;-58
2021/09/11 12:36:36;;;;;;;1.30;1.20;;;26.00;99.90;;;;;;4996198;28;20438;-58
2021/09/11 12:39:16;;;;;;;1.60;1.50;;;27.50;99.90;;;;;;4995904;28;20765;-56
2021/09/11 12:41:45;;;;;;;2.37;1.50;;;28.30;99.90;;;;;;4995887;28;20384;-59
2021/09/11 12:44:12;;;;;;;2.13;1.93;;;28.50;99.90;;;;;;4995572;28;20403;-59
2021/09/11 12:46:40;;;;;;;2.07;1.60;;;28.40;99.90;;;;;;4995659;28;20462;-55
2021/09/11 12:49:08;;;;;;;1.67;1.57;;;28.60;99.90;;;;;;4995627;28;20487;-53
2021/09/11 12:51:35;;;;;;;1.50;1.40;;;28.80;99.90;;;;;;4995577;28;20412;-53